createdAt,value
2023-01-21T00:00:36.119Z,99847.08
2023-01-21T00:01:38.524Z,99854.14
2023-01-21T00:02:41.066Z,99854.14
2023-01-21T00:03:44.007Z,99850.61
2023-01-21T00:04:47.412Z,99850.49
2023-01-21T00:05:49.772Z,99844.28
2023-01-21T00:06:52.082Z,99838.91
2023-01-21T00:07:55.387Z,99847.81
2023-01-21T00:09:01.251Z,99841.48
2023-01-21T00:10:05.073Z,99839.64
2023-01-21T00:11:08.333Z,99845.01
2023-01-21T00:12:11.237Z,99844.05
2023-01-21T00:13:13.551Z,99841.48
2023-01-21T00:14:15.835Z,99850.38
2023-01-21T00:15:19.132Z,99853.06
2023-01-21T00:16:21.639Z,99852.21
2023-01-21T00:17:24.259Z,99850.38
2023-01-21T00:18:28.751Z,99845.01
2023-01-21T00:19:31.527Z,99848.56
2023-01-21T00:20:36.449Z,99850.25
2023-01-21T00:21:38.975Z,99856.50
2023-01-21T00:22:41.718Z,99866.35
2023-01-21T00:23:45.076Z,99862.83
2023-01-21T00:24:48.533Z,99856.62
2023-01-21T00:25:59.574Z,99858.30
2023-01-21T00:27:03.438Z,99854.66
2023-01-21T00:28:05.855Z,99855.53
2023-01-21T00:29:09.454Z,99859.06
2023-01-21T00:30:14.608Z,99858.09
2023-01-21T00:31:17.327Z,99851.01
2023-01-21T00:32:19.786Z,99855.41
2023-01-21T00:33:22.877Z,99855.41
2023-01-21T00:34:25.866Z,99852.73
2023-01-21T00:35:28.660Z,99857.10
2023-01-21T00:36:31.157Z,99852.73
2023-01-21T00:37:33.570Z,99859.91
2023-01-21T00:38:37.128Z,99854.42
2023-01-21T00:39:41.414Z,99850.89
2023-01-21T00:40:44.782Z,99852.73
2023-01-21T00:41:47.264Z,99845.52
2023-01-21T00:42:49.584Z,99851.73
2023-01-21T00:43:52.852Z,99852.61
2023-01-21T00:44:56.877Z,99847.24
2023-01-21T00:45:59.511Z,99851.73
2023-01-21T00:47:01.907Z,99851.61
2023-01-21T00:48:04.931Z,99849.81
2023-01-21T00:49:08.169Z,99844.44
2023-01-21T00:50:11.094Z,99853.45
2023-01-21T00:51:13.749Z,99853.45
2023-01-21T00:52:16.180Z,99851.53
2023-01-21T00:53:20.419Z,99857.86
2023-01-21T00:54:23.190Z,99856.02
2023-01-21T00:55:26.070Z,99849.81
2023-01-21T00:56:29.250Z,99855.17
2023-01-21T00:57:32.174Z,99856.89
2023-01-21T00:58:34.983Z,99856.89
2023-01-21T00:59:38.660Z,99862.27
2023-01-21T01:00:41.509Z,99867.62
2023-01-21T01:01:44.027Z,99870.31
2023-01-21T01:02:46.496Z,99869.44
2023-01-21T01:03:49.965Z,99870.31
2023-01-21T01:04:53.364Z,99871.16
2023-01-21T01:05:59.885Z,99874.69
2023-01-21T01:07:02.945Z,99874.69
2023-01-21T01:08:05.948Z,99868.35
2023-01-21T01:09:08.927Z,99865.67
2023-01-21T01:10:12.283Z,99867.39
2023-01-21T01:11:15.327Z,99868.35
2023-01-21T01:12:18.305Z,99875.44
2023-01-21T01:13:21.673Z,99867.39
2023-01-21T01:14:24.174Z,99881.66
2023-01-21T01:15:27.203Z,99874.56
2023-01-21T01:16:29.847Z,99884.45
2023-01-21T01:17:33.084Z,99879.20
2023-01-21T01:18:35.962Z,99878.24
2023-01-21T01:19:38.792Z,99871.16
2023-01-21T01:20:47.150Z,99873.00
2023-01-21T01:21:52.683Z,99869.31
2023-01-21T01:22:55.556Z,99866.63
2023-01-21T01:24:00.355Z,99860.42
2023-01-21T01:25:03.708Z,99864.95
2023-01-21T01:26:09.553Z,99857.86
2023-01-21T01:27:12.252Z,99856.02
2023-01-21T01:28:14.786Z,99865.03
2023-01-21T01:29:18.035Z,99857.86
2023-01-21T01:30:20.621Z,99857.86
2023-01-21T01:31:23.237Z,99853.34
2023-01-21T01:32:26.035Z,99851.61
2023-01-21T01:33:29.140Z,99842.72
2023-01-21T01:34:31.507Z,99834.67
2023-01-21T01:35:35.515Z,99839.08
2023-01-21T01:36:39.061Z,99839.19
2023-01-21T01:37:41.960Z,99837.36
2023-01-21T01:38:44.736Z,99842.72
2023-01-21T01:39:48.626Z,99831.14
2023-01-21T01:41:22.369Z,99837.36
2023-01-21T01:42:25.362Z,99833.95
2023-01-21T01:43:48.694Z,99833.95
2023-01-21T01:44:59.565Z,99838.44
2023-01-21T01:46:02.361Z,99834.16
2023-01-21T01:47:05.652Z,99838.67
2023-01-21T01:48:09.519Z,99841.36
2023-01-21T01:49:15.411Z,99832.47
2023-01-21T01:50:19.737Z,99832.47
2023-01-21T01:51:25.471Z,99831.59
2023-01-21T01:52:28.549Z,99831.71
2023-01-21T01:53:31.258Z,99828.19
2023-01-21T01:54:42.936Z,99826.34
2023-01-21T01:55:45.190Z,99826.34
2023-01-21T01:56:50.107Z,99812.09
2023-01-21T01:57:53.161Z,99818.30
2023-01-21T01:58:55.727Z,99823.78
2023-01-21T02:00:02.423Z,99830.98
2023-01-21T02:01:06.873Z,99828.30
2023-01-21T02:02:12.731Z,99829.14
2023-01-21T02:03:34.167Z,99828.30
2023-01-21T02:04:39.838Z,99823.78
2023-01-21T02:05:42.803Z,99831.95
2023-01-21T02:06:45.327Z,99828.30
2023-01-21T02:07:48.801Z,99828.42
2023-01-21T02:08:52.136Z,99827.55
2023-01-21T02:09:56.221Z,99826.70
2023-01-21T02:11:00.382Z,99825.83
2023-01-21T02:12:04.595Z,99830.23
2023-01-21T02:13:07.581Z,99824.02
2023-01-21T02:14:10.768Z,99825.83
2023-01-21T02:15:13.566Z,99824.98
2023-01-21T02:16:32.211Z,99824.02
2023-01-21T02:17:55.362Z,99824.98
2023-01-21T02:19:11.670Z,99822.30
2023-01-21T02:20:41.983Z,99819.62
2023-01-21T02:22:17.052Z,99824.14
2023-01-21T02:23:22.226Z,99826.06
2023-01-21T02:24:37.791Z,99821.70
2023-01-21T02:26:09.074Z,99824.47
2023-01-21T02:27:34.775Z,99820.09
2023-01-21T02:28:43.913Z,99822.90
2023-01-21T02:29:55.853Z,99824.82
2023-01-21T02:31:32.533Z,99825.78
2023-01-21T02:32:41.368Z,99827.63
2023-01-21T02:34:10.699Z,99821.50
2023-01-21T02:35:19.790Z,99826.98
2023-01-21T02:36:44.348Z,99823.45
2023-01-21T02:37:50.526Z,99828.82
2023-01-21T02:38:59.585Z,99827.98
2023-01-21T02:40:08.730Z,99823.58
2023-01-21T02:41:30.234Z,99823.58
2023-01-21T02:42:45.774Z,99831.63
2023-01-21T02:43:51.967Z,99832.59
2023-01-21T02:45:16.584Z,99828.19
2023-01-21T02:46:38.706Z,99831.73
2023-01-21T02:47:50.787Z,99826.37
2023-01-21T02:48:57.887Z,99833.55
2023-01-21T02:50:09.408Z,99838.91
2023-01-21T02:51:13.004Z,99830.86
2023-01-21T02:52:19.712Z,99841.59
2023-01-21T02:53:30.157Z,99841.59
2023-01-21T02:54:42.862Z,99854.16
2023-01-21T02:55:45.262Z,99868.41
2023-01-21T02:56:49.490Z,99862.96
2023-01-21T02:57:54.068Z,99856.72
2023-01-21T02:58:59.242Z,99869.17
2023-01-21T03:00:04.630Z,99870.02
2023-01-21T03:01:20.733Z,99870.02
2023-01-21T03:02:37.038Z,99870.89
2023-01-21T03:05:44.533Z,99862.90
2023-01-21T03:06:59.528Z,99869.05
2023-01-21T03:08:12.669Z,99870.89
2023-01-21T03:09:18.345Z,99874.53
2023-01-21T03:10:33.741Z,99876.25
2023-01-21T03:11:39.440Z,99874.53
2023-01-21T03:12:52.130Z,99870.02
2023-01-21T03:14:17.340Z,99873.58
2023-01-21T03:15:47.916Z,99869.17
2023-01-21T03:16:57.143Z,99871.85
2023-01-21T03:18:21.679Z,99867.45
2023-01-21T03:19:36.823Z,99870.13
2023-01-21T03:20:43.116Z,99871.97
2023-01-21T03:21:45.753Z,99856.84
2023-01-21T03:22:49.007Z,99868.41
2023-01-21T03:23:52.534Z,99864.04
2023-01-21T03:24:56.281Z,99865.73
2023-01-21T03:25:59.325Z,99865.73
2023-01-21T03:27:02.357Z,99863.92
2023-01-21T03:28:08.545Z,99862.09
2023-01-21T03:29:14.667Z,99854.04
2023-01-21T03:30:18.573Z,99858.44
2023-01-21T03:32:36.276Z,99853.97
2023-01-21T03:33:39.781Z,99858.33
2023-01-21T03:34:45.345Z,99853.80
2023-01-21T03:35:48.694Z,99845.76
2023-01-21T03:36:54.608Z,99828.94
2023-01-21T03:38:05.894Z,99828.94
2023-01-21T03:39:17.921Z,99847.36
2023-01-21T03:40:30.871Z,99851.77
2023-01-21T03:41:36.346Z,99867.73
2023-01-21T03:42:38.752Z,99875.78
2023-01-21T03:43:41.330Z,99874.95
2023-01-21T03:44:43.839Z,99863.22
2023-01-21T03:45:50.723Z,99870.42
2023-01-21T03:47:00.154Z,99857.86
2023-01-21T03:48:09.112Z,99834.59
2023-01-21T03:49:35.045Z,99847.13
2023-01-21T03:50:39.568Z,99849.81
2023-01-21T03:51:52.227Z,99843.48
2023-01-21T03:52:54.572Z,99833.72
2023-01-21T03:53:57.680Z,99831.91
2023-01-21T03:55:00.837Z,99838.23
2023-01-21T03:56:04.095Z,99848.96
2023-01-21T03:57:06.400Z,99842.64
2023-01-21T03:58:09.158Z,99846.28
2023-01-21T03:59:11.455Z,99848.96
2023-01-21T04:00:15.589Z,99866.78
2023-01-21T04:01:18.935Z,99864.09
2023-01-21T04:02:21.634Z,99847.04
2023-01-21T04:03:24.656Z,99836.31
2023-01-21T04:04:27.586Z,99834.59
2023-01-21T04:05:30.920Z,99832.63
2023-01-21T04:06:33.563Z,99838.00
2023-01-21T04:07:36.060Z,99850.56
2023-01-21T04:08:39.098Z,99854.97
2023-01-21T04:09:41.651Z,99841.55
2023-01-21T04:10:44.173Z,99839.72
2023-01-21T04:11:47.008Z,99841.44
2023-01-21T04:12:49.408Z,99839.59
2023-01-21T04:13:53.657Z,99825.34
2023-01-21T04:14:57.570Z,99836.07
2023-01-21T04:15:59.985Z,99841.44
2023-01-21T04:17:02.598Z,99853.02
2023-01-21T04:18:05.304Z,99852.05
2023-01-21T04:19:08.257Z,99852.05
2023-01-21T04:20:12.324Z,99855.58
2023-01-21T04:21:14.815Z,99849.36
2023-01-21T04:22:17.947Z,99847.53
2023-01-21T04:23:21.084Z,99852.89
2023-01-21T04:24:23.555Z,99852.77
2023-01-21T04:25:26.834Z,99843.88
2023-01-21T04:26:29.318Z,99845.72
2023-01-21T04:27:32.924Z,99859.02
2023-01-21T04:28:35.264Z,99867.19
2023-01-21T04:29:38.265Z,99857.30
2023-01-21T04:30:40.933Z,99864.38
2023-01-21T04:31:44.048Z,99867.91
2023-01-21T04:32:46.455Z,99868.75
2023-01-21T04:33:49.047Z,99859.02
2023-01-21T04:34:51.983Z,99864.38
2023-01-21T04:35:59.466Z,99874.12
2023-01-21T04:37:03.078Z,99873.27
2023-01-21T04:38:05.588Z,99873.27
2023-01-21T04:39:10.754Z,99867.91
2023-01-21T04:40:14.823Z,99873.27
2023-01-21T04:41:17.690Z,99872.43
2023-01-21T04:42:20.442Z,99874.99
2023-01-21T04:43:25.047Z,99871.44
2023-01-21T04:44:28.545Z,99871.44
2023-01-21T04:45:31.084Z,99870.59
2023-01-21T04:46:33.619Z,99865.22
2023-01-21T04:47:36.665Z,99871.44
2023-01-21T04:48:39.076Z,99880.48
2023-01-21T04:49:43.525Z,99872.43
2023-01-21T04:50:46.649Z,99882.16
2023-01-21T04:51:49.159Z,99882.16
2023-01-21T04:52:51.804Z,99893.78
2023-01-21T04:53:54.983Z,99891.09
2023-01-21T04:54:57.740Z,99888.41
2023-01-21T04:56:00.775Z,99868.75
2023-01-21T04:57:04.274Z,99880.36
2023-01-21T04:58:06.993Z,99889.25
2023-01-21T04:59:10.604Z,99881.20
2023-01-21T05:00:14.110Z,99874.12
2023-01-21T05:01:16.757Z,99878.52
2023-01-21T05:02:19.938Z,99876.72
2023-01-21T05:03:22.439Z,99876.72
2023-01-21T05:04:26.064Z,99881.20
2023-01-21T05:05:28.873Z,99878.52
2023-01-21T05:06:31.522Z,99883.89
2023-01-21T05:07:34.175Z,99878.52
2023-01-21T05:08:37.467Z,99877.67
2023-01-21T05:09:41.151Z,99879.40
2023-01-21T05:10:45.251Z,99883.89
2023-01-21T05:11:49.695Z,99883.89
2023-01-21T05:12:52.159Z,99884.77
2023-01-21T05:13:55.745Z,99891.09
2023-01-21T05:14:58.696Z,99877.67
2023-01-21T05:16:07.039Z,99890.13
2023-01-21T05:17:09.630Z,99886.57
2023-01-21T05:18:13.327Z,99889.25
2023-01-21T05:19:28.622Z,99883.89
2023-01-21T05:20:32.382Z,99882.92
2023-01-21T05:21:34.629Z,99875.55
2023-01-21T05:22:37.367Z,99875.55
2023-01-21T05:23:40.795Z,99888.17
2023-01-21T05:24:43.153Z,99890.86
2023-01-21T05:25:46.329Z,99892.58
2023-01-21T05:26:50.308Z,99880.97
2023-01-21T05:27:53.667Z,99888.05
2023-01-21T05:28:57.002Z,99887.21
2023-01-21T05:30:01.168Z,99888.05
2023-01-21T05:31:04.848Z,99884.53
2023-01-21T05:32:07.348Z,99889.89
2023-01-21T05:33:09.982Z,99889.89
2023-01-21T05:34:12.631Z,99892.58
2023-01-21T05:35:17.664Z,99890.73
2023-01-21T05:36:20.963Z,99884.53
2023-01-21T05:37:23.518Z,99880.00
2023-01-21T05:38:25.812Z,99886.25
2023-01-21T05:39:28.906Z,99884.41
2023-01-21T05:40:31.460Z,99881.84
2023-01-21T05:41:34.327Z,99881.84
2023-01-21T05:42:36.689Z,99881.84
2023-01-21T05:43:38.978Z,99889.89
2023-01-21T05:44:42.574Z,99889.02
2023-01-21T05:45:46.900Z,99896.11
2023-01-21T05:46:49.444Z,99890.73
2023-01-21T05:47:51.796Z,99886.25
2023-01-21T05:48:54.223Z,99873.80
2023-01-21T05:49:58.396Z,99879.16
2023-01-21T05:51:05.414Z,99873.80
2023-01-21T05:52:08.784Z,99875.60
2023-01-21T05:53:11.165Z,99876.48
2023-01-21T05:54:13.940Z,99886.25
2023-01-21T05:55:16.670Z,99879.16
2023-01-21T05:56:19.059Z,99881.84
2023-01-21T05:57:22.453Z,99896.98
2023-01-21T05:58:25.840Z,99892.58
2023-01-21T05:59:28.415Z,99893.42
2023-01-21T06:00:31.009Z,99882.69
2023-01-21T06:01:34.789Z,99885.38
2023-01-21T06:02:37.215Z,99888.93
2023-01-21T06:03:40.689Z,99897.95
2023-01-21T06:04:43.890Z,99903.31
2023-01-21T06:05:48.480Z,99904.27
2023-01-21T06:06:51.487Z,99899.75
2023-01-21T06:07:53.983Z,99900.74
2023-01-21T06:08:56.928Z,99887.21
2023-01-21T06:09:59.411Z,99896.22
2023-01-21T06:11:02.055Z,99889.02
2023-01-21T06:12:05.483Z,99894.30
2023-01-21T06:13:10.664Z,99889.78
2023-01-21T06:14:13.330Z,99884.53
2023-01-21T06:15:16.417Z,99892.58
2023-01-21T06:16:19.035Z,99895.14
2023-01-21T06:17:22.676Z,99890.73
2023-01-21T06:18:27.242Z,99889.78
2023-01-21T06:19:29.709Z,99883.56
2023-01-21T06:20:32.331Z,99876.36
2023-01-21T06:21:35.636Z,99884.41
2023-01-21T06:22:38.376Z,99892.34
2023-01-21T06:23:42.210Z,99899.55
2023-01-21T06:24:44.773Z,99895.98
2023-01-21T06:25:47.099Z,99898.67
2023-01-21T06:26:50.597Z,99893.30
2023-01-21T06:27:56.613Z,99904.91
2023-01-21T06:28:59.520Z,99912.09
2023-01-21T06:30:02.187Z,99897.70
2023-01-21T06:31:04.975Z,99893.30
2023-01-21T06:32:07.660Z,99900.39
2023-01-21T06:33:10.196Z,99903.19
2023-01-21T06:34:12.870Z,99905.76
2023-01-21T06:35:17.186Z,99892.34
2023-01-21T06:36:21.567Z,99904.80
2023-01-21T06:37:24.648Z,99902.95
2023-01-21T06:38:27.012Z,99912.84
2023-01-21T06:39:29.204Z,99906.52
2023-01-21T06:40:31.695Z,99902.95
2023-01-21T06:41:34.508Z,99904.67
2023-01-21T06:42:37.695Z,99912.73
2023-01-21T06:43:40.589Z,99918.09
2023-01-21T06:45:57.205Z,99906.56
2023-01-21T06:47:02.173Z,99903.72
2023-01-21T06:48:05.822Z,99892.10
2023-01-21T06:49:08.796Z,99901.99
2023-01-21T06:51:26.441Z,99899.36
2023-01-21T06:52:28.707Z,99901.87
2023-01-21T06:53:31.022Z,99888.58
2023-01-21T06:54:34.491Z,99901.99
2023-01-21T06:55:36.931Z,99897.47
2023-01-21T06:56:41.243Z,99909.08
2023-01-21T06:57:44.358Z,99906.40
2023-01-21T06:58:47.580Z,99915.30
2023-01-21T06:59:50.491Z,99916.25
2023-01-21T07:00:56.140Z,99907.24
2023-01-21T07:02:00.046Z,99901.03
2023-01-21T07:03:03.575Z,99903.72
2023-01-21T07:04:06.773Z,99913.57
2023-01-21T07:05:09.509Z,99915.41
2023-01-21T07:06:13.066Z,99919.94
2023-01-21T07:07:15.449Z,99911.77
2023-01-21T07:08:18.333Z,99909.20
2023-01-21T07:09:21.776Z,99916.25
2023-01-21T07:10:25.616Z,99914.56
2023-01-21T07:11:28.710Z,99901.99
2023-01-21T07:12:31.338Z,99899.31
2023-01-21T07:13:34.541Z,99912.73
2023-01-21T07:14:37.944Z,99906.52
2023-01-21T07:15:40.405Z,99916.25
2023-01-21T07:16:43.220Z,99911.88
2023-01-21T07:17:45.434Z,99920.77
2023-01-21T07:18:48.232Z,99917.25
2023-01-21T07:19:52.799Z,99927.11
2023-01-21T07:20:55.501Z,99916.48
2023-01-21T07:22:00.605Z,99923.58
2023-01-21T07:23:04.362Z,99921.02
2023-01-21T07:24:08.598Z,99930.87
2023-01-21T07:25:11.553Z,99928.19
2023-01-21T07:26:14.851Z,99939.80
2023-01-21T07:27:17.829Z,99938.07
2023-01-21T07:28:20.829Z,99941.60
2023-01-21T07:29:24.636Z,99938.19
2023-01-21T07:30:27.640Z,99946.23
2023-01-21T07:31:30.139Z,99953.41
2023-01-21T07:32:33.639Z,99944.52
2023-01-21T07:33:36.290Z,99964.14
2023-01-21T07:34:38.594Z,99958.89
2023-01-21T07:35:41.256Z,99962.45
2023-01-21T07:36:44.205Z,99961.58
2023-01-21T07:37:46.602Z,99968.78
2023-01-21T07:38:49.817Z,99972.31
2023-01-21T07:39:54.567Z,99963.30
2023-01-21T07:40:56.975Z,99969.51
2023-01-21T07:41:59.952Z,99963.30
2023-01-21T07:43:03.579Z,99967.82
2023-01-21T07:44:07.126Z,99958.89
2023-01-21T07:46:25.249Z,99947.37
2023-01-21T07:47:28.821Z,99963.41
2023-01-21T07:48:32.747Z,99964.38
2023-01-21T07:49:36.984Z,99959.02
2023-01-21T07:50:40.551Z,99945.59
2023-01-21T07:51:46.241Z,99963.53
2023-01-21T07:52:49.417Z,99972.42
2023-01-21T07:53:51.903Z,99975.98
2023-01-21T07:54:54.212Z,99979.52
2023-01-21T07:55:56.911Z,99984.88
2023-01-21T07:56:59.340Z,99981.34
2023-01-21T07:58:01.978Z,99983.16
2023-01-21T07:59:04.355Z,99984.12
2023-01-21T08:00:09.685Z,99980.47
2023-01-21T08:01:15.608Z,99990.36
2023-01-21T08:02:18.683Z,99994.84
2023-01-21T08:03:22.677Z,99989.48
2023-01-21T08:04:26.011Z,99991.32
2023-01-21T08:05:28.805Z,99990.59
2023-01-21T08:06:32.956Z,99981.55
2023-01-21T08:07:36.105Z,99996.80
2023-01-21T08:08:38.362Z,99985.11
2023-01-21T08:09:40.810Z,99997.65
2023-01-21T08:10:44.194Z,100004.73
2023-01-21T08:11:46.759Z,100002.05
2023-01-21T08:12:49.073Z,99999.38
2023-01-21T08:13:51.568Z,100003.02
2023-01-21T08:14:54.436Z,100005.70
2023-01-21T08:15:56.905Z,100009.38
2023-01-21T08:17:00.050Z,100013.74
2023-01-21T08:18:03.310Z,100012.90
2023-01-21T08:19:08.486Z,100017.42
2023-01-21T08:20:12.755Z,100017.42
2023-01-21T08:21:18.075Z,100012.05
2023-01-21T08:22:20.725Z,100013.74
2023-01-21T08:23:23.345Z,100021.91
2023-01-21T08:24:25.743Z,100016.54
2023-01-21T08:25:28.134Z,100018.38
2023-01-21T08:26:30.585Z,100022.90
2023-01-21T08:27:32.923Z,100012.17
2023-01-21T08:28:35.549Z,100014.85
2023-01-21T08:29:38.420Z,100013.13
2023-01-21T08:30:41.574Z,100016.66
2023-01-21T08:31:44.864Z,100005.08
2023-01-21T08:32:48.613Z,100019.34
2023-01-21T08:33:51.456Z,100013.97
2023-01-21T08:34:54.594Z,100024.70
2023-01-21T08:36:01.248Z,100024.70
2023-01-21T08:37:03.703Z,100023.86
2023-01-21T08:38:07.158Z,100017.62
2023-01-21T08:39:11.160Z,100021.17
2023-01-21T08:40:14.702Z,100024.70
2023-01-21T08:41:17.239Z,100018.49
2023-01-21T08:42:19.878Z,100020.30
2023-01-21T08:43:22.339Z,100021.17
2023-01-21T08:44:25.665Z,100022.14
2023-01-21T08:45:28.373Z,100038.23
2023-01-21T08:46:31.764Z,100030.19
2023-01-21T08:47:34.191Z,100037.39
2023-01-21T08:48:39.560Z,100034.70
2023-01-21T08:49:42.769Z,100041.88
2023-01-21T08:50:45.636Z,100052.61
2023-01-21T08:51:48.885Z,100033.41
2023-01-21T08:52:52.818Z,100033.41
2023-01-21T08:53:55.319Z,100055.29
2023-01-21T08:54:57.768Z,100057.13
2023-01-21T08:56:03.965Z,100049.08
2023-01-21T08:57:06.978Z,100056.28
2023-01-21T08:58:10.368Z,100045.55
2023-01-21T08:59:12.859Z,100047.24
2023-01-21T09:00:17.368Z,100049.08
2023-01-21T09:01:19.868Z,100052.72
2023-01-21T09:02:23.061Z,100051.77
2023-01-21T09:03:25.557Z,100059.81
2023-01-21T09:04:28.006Z,100060.66
2023-01-21T09:05:30.423Z,100052.72
2023-01-21T09:06:32.963Z,100046.51
2023-01-21T09:07:35.529Z,100052.72
2023-01-21T09:08:38.841Z,100058.20
2023-01-21T09:09:43.233Z,100063.45
2023-01-21T09:11:01.800Z,100053.59
2023-01-21T09:12:07.334Z,100051.00
2023-01-21T09:13:10.350Z,100058.20
2023-01-21T09:14:12.826Z,100058.31
2023-01-21T09:15:17.264Z,100051.11
2023-01-21T09:16:23.316Z,100047.58
2023-01-21T09:17:26.901Z,100045.74
2023-01-21T09:18:33.424Z,100044.90
2023-01-21T09:19:35.875Z,100041.37
2023-01-21T09:20:39.197Z,100040.37
2023-01-21T09:21:42.035Z,100044.90
2023-01-21T09:22:45.451Z,100047.58
2023-01-21T09:23:47.756Z,100049.42
2023-01-21T09:24:50.267Z,100050.27
2023-01-21T09:25:54.007Z,100054.78
2023-01-21T09:26:57.019Z,100058.42
2023-01-21T09:28:00.339Z,100057.55
2023-01-21T09:29:02.873Z,100054.97
2023-01-21T09:30:06.779Z,100059.72
2023-01-21T09:31:14.399Z,100059.72
2023-01-21T09:32:17.536Z,100057.04
2023-01-21T09:33:21.077Z,100052.63
2023-01-21T09:34:24.782Z,100054.58
2023-01-21T09:35:27.262Z,100056.38
2023-01-21T09:36:31.398Z,100054.77
2023-01-21T09:38:51.114Z,100048.88
2023-01-21T09:39:55.592Z,100046.11
2023-01-21T09:41:26.043Z,100044.37
2023-01-21T09:42:30.923Z,100061.43
2023-01-21T09:43:37.033Z,100054.45
2023-01-21T13:40:57.188Z,100210.05
2023-01-21T13:42:06.119Z,100210.47
2023-01-21T13:43:18.280Z,100217.11
2023-01-21T13:44:57.544Z,100211.30
2023-01-21T13:46:04.170Z,100215.91
2023-01-21T13:47:29.283Z,100217.66
2023-01-21T13:48:39.144Z,100220.50
2023-01-21T13:49:45.602Z,100216.21
2023-01-21T13:51:07.329Z,100222.66
2023-01-21T13:52:17.156Z,100222.99
2023-01-21T13:53:26.722Z,100219.63
2023-01-21T13:54:39.888Z,100218.19
2023-01-21T13:55:58.136Z,100223.86
2023-01-21T13:57:14.041Z,100218.84
2023-01-21T14:00:01.735Z,100223.80
2023-01-21T14:01:32.812Z,100224.94
2023-01-21T14:02:59.522Z,100230.78
2023-01-21T14:04:11.793Z,100229.36
2023-01-21T14:05:36.102Z,100245.94
2023-01-21T14:06:53.061Z,100248.22
2023-01-21T14:08:31.024Z,100245.28
2023-01-21T14:09:49.133Z,100244.99
2023-01-21T14:12:19.264Z,100246.33
2023-01-21T14:14:57.332Z,100249.68
2023-01-21T14:16:34.067Z,100254.55
2023-01-21T14:17:52.362Z,100242.80
2023-01-21T14:20:38.912Z,100254.85
2023-01-21T14:21:55.127Z,100262.50
2023-01-21T14:23:18.995Z,100263.16
2023-01-21T14:24:42.026Z,100275.49
2023-01-21T14:26:08.219Z,100279.80
2023-01-21T14:27:24.977Z,100277.87
2023-01-21T14:28:33.024Z,100284.95
2023-01-21T14:31:01.967Z,100288.59
2023-01-21T14:32:23.127Z,100292.72
2023-01-21T14:33:32.311Z,100291.73
2023-01-21T14:34:44.627Z,100288.96
2023-01-21T14:37:13.360Z,100291.68
2023-01-21T14:38:32.688Z,100300.26
2023-01-21T14:39:58.905Z,100300.26
2023-01-21T14:42:21.992Z,100304.13
2023-01-21T14:44:53.870Z,100314.73
2023-01-21T14:45:57.406Z,100312.80
2023-01-21T14:47:23.836Z,100311.17
2023-01-21T14:48:40.976Z,100321.87
2023-01-21T14:49:49.220Z,100328.09
2023-01-21T14:50:56.375Z,100331.64
2023-01-21T14:51:58.820Z,100329.81
2023-01-21T14:53:03.113Z,100337.85
2023-01-21T14:54:15.011Z,100335.17
2023-01-21T14:55:31.054Z,100335.17
2023-01-21T14:56:33.913Z,100332.39
2023-01-21T14:57:37.937Z,100338.56
2023-01-21T14:58:46.212Z,100334.22
2023-01-21T14:59:49.747Z,100329.72
2023-01-21T15:00:53.161Z,100329.61
2023-01-21T15:03:21.093Z,100323.52
2023-01-21T15:04:33.754Z,100334.91
2023-01-21T15:05:36.831Z,100327.85
2023-01-21T15:06:41.238Z,100334.91
2023-01-21T15:07:46.449Z,100334.91
2023-01-21T15:08:54.702Z,100331.38
2023-01-21T15:09:58.950Z,100334.06
2023-01-21T15:11:03.534Z,100333.20
2023-01-21T15:12:08.815Z,100338.56
2023-01-21T15:13:39.737Z,100330.53
2023-01-21T15:14:44.210Z,100342.09
2023-01-21T15:16:06.994Z,100345.52
2023-01-21T15:17:29.792Z,100338.37
2023-01-21T15:19:54.288Z,100339.39
2023-01-21T15:20:57.906Z,100342.77
2023-01-21T15:22:10.063Z,100343.72
2023-01-21T15:24:41.219Z,100347.33
2023-01-21T15:26:12.890Z,100352.41
2023-01-21T15:28:46.084Z,100357.00
2023-01-21T15:30:04.769Z,100359.50
2023-01-21T15:31:09.272Z,100363.05
2023-01-21T15:32:23.550Z,100355.97
2023-01-21T15:33:27.319Z,100362.17
2023-01-21T15:34:30.308Z,100364.75
2023-01-21T15:35:34.141Z,100363.80
2023-01-21T15:36:47.462Z,100363.80
2023-01-21T15:37:55.289Z,100375.37
2023-01-21T15:39:15.947Z,100366.28
2023-01-21T15:40:22.461Z,100376.91
2023-01-21T15:41:29.831Z,100372.42
2023-01-21T15:42:56.586Z,100378.53
2023-01-21T15:44:32.926Z,100375.85
2023-01-21T15:46:05.093Z,100373.17
2023-01-21T15:49:25.806Z,100380.75
2023-01-21T15:50:38.374Z,100377.00
2023-01-21T15:52:03.079Z,100386.09
2023-01-21T15:53:12.598Z,100389.64
2023-01-21T15:54:22.155Z,100389.84
2023-01-21T15:55:50.668Z,100390.79
2023-01-21T15:57:02.932Z,100386.38
2023-01-21T15:58:19.004Z,100389.91
2023-01-21T15:59:45.521Z,100396.25
2023-01-21T16:01:10.990Z,100394.42
2023-01-21T16:02:33.987Z,100384.65
2023-01-21T16:03:40.020Z,100391.84
2023-01-21T16:06:26.754Z,100396.53
2023-01-21T16:07:50.726Z,100393.56
2023-01-21T16:10:24.422Z,100397.28
2023-01-21T16:11:51.379Z,100407.72
2023-01-21T16:13:31.333Z,100414.02
2023-01-21T16:14:40.210Z,100413.95
2023-01-21T16:16:09.364Z,100418.33
2023-01-21T16:18:46.993Z,100413.27
2023-01-21T16:19:52.420Z,100419.31
2023-01-21T16:20:55.797Z,100413.95
2023-01-21T16:22:01.432Z,100411.27
2023-01-21T16:23:05.225Z,100408.59
2023-01-21T16:25:23.244Z,100415.78
2023-01-21T16:26:27.506Z,100420.91
2023-01-21T16:27:31.694Z,100419.11
2023-01-21T16:28:43.671Z,100419.96
2023-01-21T16:29:47.440Z,100419.77
2023-01-21T16:30:58.427Z,100424.17
2023-01-21T16:32:02.037Z,100425.02
2023-01-21T16:33:13.918Z,100428.48
2023-01-21T16:34:41.613Z,100430.22
2023-01-21T16:35:51.085Z,100434.59
2023-01-21T16:36:54.195Z,100441.69
2023-01-21T16:37:57.400Z,100441.69
2023-01-21T16:39:05.225Z,100439.89
2023-01-21T16:40:20.422Z,100439.89
2023-01-21T16:41:23.601Z,100443.42
2023-01-21T16:42:40.402Z,100440.73
2023-01-21T16:44:02.949Z,100442.63
2023-01-21T16:45:18.100Z,100446.09
2023-01-21T16:46:37.338Z,100444.27
2023-01-21T16:47:40.009Z,100451.45
2023-01-21T16:48:42.308Z,100449.63
2023-01-21T16:49:44.667Z,100450.61
2023-01-21T16:50:47.970Z,100457.66
2023-01-21T16:53:07.890Z,100456.06
2023-01-21T16:54:24.250Z,100450.51
2023-01-21T16:55:29.669Z,100457.56
2023-01-21T16:56:33.196Z,100457.56
2023-01-21T16:57:36.997Z,100464.66
2023-01-21T16:58:39.677Z,100461.13
2023-01-21T16:59:48.925Z,100464.56
2023-01-21T17:01:07.633Z,100461.98
2023-01-21T17:02:27.581Z,100463.71
2023-01-21T17:03:31.648Z,100463.71
2023-01-21T17:04:35.138Z,100472.59
2023-01-21T17:05:38.217Z,100477.11
2023-01-21T17:06:41.133Z,100469.17
2023-01-21T17:07:48.889Z,100471.75
2023-01-21T17:08:55.244Z,100475.28
2023-01-21T17:11:15.628Z,100469.16
2023-01-21T17:12:23.326Z,100479.59
2023-01-21T17:13:26.903Z,100481.42
2023-01-21T17:14:30.832Z,100474.33
2023-01-21T17:15:36.933Z,100474.33
2023-01-21T17:16:39.928Z,100470.80
2023-01-21T17:17:43.389Z,100484.95
2023-01-21T17:18:58.302Z,100484.00
2023-01-21T17:20:01.913Z,100484.85
2023-01-21T17:21:07.410Z,100487.53
2023-01-21T17:22:21.327Z,100489.27
2023-01-21T17:23:39.897Z,100496.36
2023-01-21T17:24:54.984Z,100495.47
2023-01-21T17:26:20.542Z,100496.36